createdAt,value
2024-01-06T00:00:26.637Z,30.95
2024-01-06T00:03:29.939Z,30.73
2024-01-06T00:06:33.578Z,34.22
2024-01-06T00:09:36.787Z,36.40
2024-01-06T00:12:39.963Z,39.92
2024-01-06T00:15:43.057Z,34.90
2024-01-06T00:18:46.556Z,43.67
2024-01-06T00:21:49.677Z,38.10
2024-01-06T00:24:52.830Z,36.67
2024-01-06T00:27:55.871Z,37.03
2024-01-06T00:30:59.049Z,33.72
2024-01-06T00:34:02.490Z,38.70
2024-01-06T00:37:05.743Z,42.10
2024-01-06T00:40:09.168Z,33.65
2024-01-06T00:43:12.174Z,35.03
2024-01-06T00:46:15.324Z,37.33
2024-01-06T00:49:18.452Z,36.90
2024-01-06T00:52:21.529Z,35.35
2024-01-06T00:55:25.544Z,40.25
2024-01-06T00:58:28.538Z,40.90
2024-01-06T01:01:31.590Z,35.20
2024-01-06T01:04:34.694Z,35.03
2024-01-06T01:07:37.966Z,40.72
2024-01-06T01:10:41.277Z,37.28
2024-01-06T01:13:44.492Z,35.45
2024-01-06T01:16:47.828Z,36.95
2024-01-06T01:19:51.195Z,40.20
2024-01-06T01:22:54.671Z,37.65
2024-01-06T01:25:57.911Z,33.42
2024-01-06T01:29:01.137Z,36.08
2024-01-06T01:32:04.871Z,33.28
2024-01-06T01:35:09.619Z,38.90
2024-01-06T01:38:12.863Z,36.60
2024-01-06T01:41:16.181Z,37.20
2024-01-06T01:44:19.486Z,33.90
2024-01-06T01:47:22.812Z,35.03
2024-01-06T01:50:29.017Z,35.90
2024-01-06T01:53:32.449Z,34.97
2024-01-06T01:56:35.497Z,35.10
2024-01-06T01:59:38.572Z,32.10
2024-01-06T02:02:41.691Z,36.15
2024-01-06T02:05:44.825Z,32.97
2024-01-06T02:08:47.807Z,34.85
2024-01-06T02:11:50.832Z,32.38
2024-01-06T02:14:53.896Z,35.67
2024-01-06T02:17:56.942Z,32.80
2024-01-06T02:21:01.675Z,34.53
2024-01-06T02:24:04.869Z,33.25
2024-01-06T02:27:07.910Z,33.97
2024-01-06T02:30:11.595Z,33.88
2024-01-06T02:33:15.118Z,28.13
2024-01-06T02:36:18.482Z,33.23
2024-01-06T02:39:21.963Z,31.58
2024-01-06T02:42:26.616Z,27.67
2024-01-06T02:45:29.924Z,30.75
2024-01-06T02:48:33.277Z,26.67
2024-01-06T02:51:36.578Z,26.07
2024-01-06T02:54:39.954Z,26.63
2024-01-06T02:57:43.342Z,25.15
2024-01-06T03:00:46.699Z,25.55
2024-01-06T03:03:49.853Z,25.20
2024-01-06T03:06:54.968Z,26.40
2024-01-06T03:09:58.173Z,25.70
2024-01-06T03:13:01.239Z,25.33
2024-01-06T03:16:07.085Z,25.33
2024-01-06T03:19:10.214Z,25.05
2024-01-06T03:22:13.304Z,27.90
2024-01-06T03:25:16.369Z,23.60
2024-01-06T03:28:19.502Z,24.27
2024-01-06T03:31:23.925Z,21.65
2024-01-06T03:34:27.186Z,22.38
2024-01-06T03:37:30.212Z,22.60
2024-01-06T03:40:33.364Z,23.70
2024-01-06T03:43:36.482Z,24.02
2024-01-06T03:46:39.678Z,24.98
2024-01-06T03:49:42.926Z,22.23
2024-01-06T03:52:46.098Z,23.40
2024-01-06T03:55:49.098Z,23.25
2024-01-06T03:58:52.112Z,21.42
2024-01-06T04:01:55.142Z,19.98
2024-01-06T04:04:58.161Z,21.65
2024-01-06T04:08:02.333Z,21.97
2024-01-06T04:11:05.303Z,22.38
2024-01-06T04:14:09.005Z,28.98
2024-01-06T04:17:12.004Z,26.98
2024-01-06T04:20:14.984Z,30.52
2024-01-06T04:23:17.966Z,26.53
2024-01-06T04:26:21.071Z,24.63
2024-01-06T04:29:24.167Z,27.90
2024-01-06T04:32:27.523Z,24.70
2024-01-06T04:35:30.685Z,26.73
2024-01-06T04:38:33.816Z,27.17
2024-01-06T04:41:37.102Z,29.80
2024-01-06T04:44:40.368Z,31.70
2024-01-06T04:47:43.700Z,24.92
2024-01-06T04:50:46.837Z,28.65
2024-01-06T04:53:50.043Z,25.97
2024-01-06T04:56:53.250Z,27.38
2024-01-06T04:59:56.347Z,28.90
2024-01-06T05:02:59.634Z,28.05
2024-01-06T05:06:02.953Z,27.63
2024-01-06T05:09:06.206Z,28.50
2024-01-06T05:12:09.604Z,29.35
2024-01-06T05:15:13.237Z,29.48
2024-01-06T05:18:16.716Z,26.83
2024-01-06T05:21:20.073Z,27.05
2024-01-06T05:24:23.620Z,27.07
2024-01-06T05:27:26.914Z,25.23
2024-01-06T05:30:30.001Z,26.08
2024-01-06T05:33:33.114Z,24.50
2024-01-06T05:36:36.172Z,27.83
2024-01-06T05:39:41.070Z,26.50
2024-01-06T05:42:44.201Z,34.33
2024-01-06T05:45:47.251Z,36.88
2024-01-06T05:48:50.506Z,29.95
2024-01-06T05:51:53.824Z,26.35
2024-01-06T05:54:56.957Z,22.23
2024-01-06T05:58:00.276Z,21.60
2024-01-06T06:01:04.035Z,18.88
2024-01-06T06:04:07.377Z,19.52
2024-01-06T06:07:10.544Z,20.38
2024-01-06T06:10:14.063Z,21.47
2024-01-06T06:13:17.381Z,21.83
2024-01-06T06:16:20.556Z,22.63
2024-01-06T06:19:23.886Z,21.55
2024-01-06T06:22:33.042Z,23.60
2024-01-06T06:25:38.097Z,20.43
2024-01-06T06:28:41.085Z,24.10
2024-01-06T06:31:46.104Z,25.33
2024-01-06T06:34:49.341Z,25.92
2024-01-06T06:37:52.427Z,23.88
2024-01-06T06:40:55.657Z,20.53
2024-01-06T06:43:59.529Z,19.88
2024-01-06T06:47:02.513Z,20.60
2024-01-06T06:50:06.501Z,21.67
2024-01-06T06:53:10.007Z,20.63
2024-01-06T06:56:15.483Z,20.37
2024-01-06T06:59:18.574Z,19.25
2024-01-06T07:02:21.554Z,19.45
2024-01-06T07:05:24.615Z,20.50
2024-01-06T07:08:27.653Z,19.40
2024-01-06T07:11:30.679Z,18.57
2024-01-06T07:14:33.623Z,19.42
2024-01-06T07:17:36.710Z,17.73
2024-01-06T07:20:39.772Z,20.02
2024-01-06T07:23:43.750Z,19.75
2024-01-06T07:26:46.841Z,23.57
2024-01-06T07:29:49.822Z,17.83
2024-01-06T07:32:53.381Z,17.88
2024-01-06T07:35:56.566Z,25.27
2024-01-06T07:38:59.683Z,27.90
2024-01-06T07:42:03.941Z,22.53
2024-01-06T07:45:07.534Z,27.17
2024-01-06T07:48:10.664Z,20.67
2024-01-06T07:51:13.824Z,18.85
2024-01-06T07:54:16.870Z,23.23
2024-01-06T07:57:19.939Z,19.50
2024-01-06T08:00:23.257Z,18.13
2024-01-06T08:03:26.411Z,17.63
2024-01-06T08:06:29.607Z,17.60
2024-01-06T08:09:32.708Z,20.45
2024-01-06T08:12:35.818Z,16.17
2024-01-06T08:15:39.180Z,15.55
2024-01-06T08:18:42.314Z,20.25
2024-01-06T08:21:45.922Z,17.33
2024-01-06T08:24:49.017Z,18.23
2024-01-06T08:27:52.049Z,24.67
2024-01-06T08:30:55.227Z,19.40
2024-01-06T08:33:58.363Z,18.85
2024-01-06T08:37:01.537Z,17.00
2024-01-06T08:40:06.103Z,18.15
2024-01-06T08:43:09.129Z,16.83
2024-01-06T08:46:12.901Z,15.18
2024-01-06T08:49:16.144Z,15.18
2024-01-06T08:52:19.178Z,15.07
2024-01-06T08:55:22.215Z,18.63
2024-01-06T08:58:25.213Z,20.73
2024-01-06T09:01:28.364Z,19.60
2024-01-06T09:04:32.479Z,19.63
2024-01-06T09:07:35.565Z,17.35
2024-01-06T09:10:38.584Z,21.83
2024-01-06T09:13:41.553Z,17.90
2024-01-06T09:16:44.535Z,20.75
2024-01-06T09:19:49.045Z,19.08
2024-01-06T09:22:52.902Z,17.50
2024-01-06T09:25:56.010Z,16.10
2024-01-06T09:28:58.999Z,17.70
2024-01-06T09:32:01.957Z,18.55
2024-01-06T09:35:05.371Z,19.42
2024-01-06T09:38:08.445Z,15.63
2024-01-06T09:41:11.455Z,18.00
2024-01-06T09:44:16.953Z,21.20
2024-01-06T09:47:20.880Z,19.60
2024-01-06T09:50:23.962Z,17.70
2024-01-06T09:53:29.350Z,19.42
2024-01-06T09:56:32.917Z,18.65
2024-01-06T09:59:37.623Z,17.20
2024-01-06T10:02:41.770Z,19.58
2024-01-06T10:05:44.837Z,18.50
2024-01-06T10:08:52.415Z,20.75
2024-01-06T10:11:58.581Z,23.15
2024-01-06T10:15:01.541Z,18.10
2024-01-06T10:18:05.296Z,18.55
2024-01-06T10:21:08.971Z,20.17
2024-01-06T10:24:12.042Z,26.30
2024-01-06T10:27:15.080Z,20.45
2024-01-06T10:30:19.556Z,24.33
2024-01-06T10:33:26.372Z,20.60
2024-01-06T10:36:29.693Z,32.30
2024-01-06T10:39:34.328Z,33.47
2024-01-06T10:42:40.804Z,32.45
2024-01-06T10:45:43.948Z,39.47
2024-01-06T10:48:47.285Z,28.35
2024-01-06T10:51:51.840Z,25.45
2024-01-06T10:54:56.145Z,25.17
2024-01-06T10:57:59.259Z,37.53
2024-01-06T11:01:02.480Z,31.63
2024-01-06T11:04:06.293Z,25.25
2024-01-06T11:07:09.400Z,25.88
2024-01-06T11:10:16.952Z,26.33
2024-01-06T11:13:23.938Z,31.83
2024-01-06T11:16:39.642Z,23.40
2024-01-06T11:19:43.184Z,22.90
2024-01-06T11:22:46.890Z,26.38
2024-01-06T11:25:49.889Z,25.75
2024-01-06T11:28:54.716Z,18.33
2024-01-06T11:32:25.550Z,21.27
2024-01-06T11:35:30.855Z,21.55
2024-01-06T11:38:38.662Z,19.42
2024-01-06T11:41:51.308Z,20.35
2024-01-06T11:44:54.444Z,21.80
2024-01-06T11:48:04.072Z,22.33
2024-01-06T11:51:07.192Z,23.52
2024-01-06T11:54:11.251Z,21.80
2024-01-06T11:57:14.302Z,23.98
2024-01-06T12:00:18.417Z,26.38
2024-01-06T12:03:21.521Z,22.63
2024-01-06T12:06:24.681Z,19.95
2024-01-06T12:09:27.989Z,24.38
2024-01-06T12:12:31.188Z,22.15
2024-01-06T12:15:34.657Z,17.77
2024-01-06T12:18:37.872Z,20.73
2024-01-06T12:21:41.001Z,20.63
2024-01-06T12:24:44.238Z,20.98
2024-01-06T12:27:48.858Z,25.30
2024-01-06T12:30:51.985Z,25.65
2024-01-06T12:33:55.145Z,25.33
2024-01-06T12:36:58.705Z,28.33
2024-01-06T12:40:01.803Z,25.42
2024-01-06T12:43:06.758Z,23.20
2024-01-06T12:46:09.897Z,23.98
2024-01-06T12:49:13.127Z,22.77
2024-01-06T12:52:16.194Z,22.90
2024-01-06T12:55:19.380Z,25.20
2024-01-06T12:58:22.849Z,28.98
2024-01-06T13:01:26.189Z,26.42
2024-01-06T13:04:29.362Z,26.17
2024-01-06T13:07:32.378Z,31.33
2024-01-06T13:10:36.927Z,25.05
2024-01-06T13:13:39.917Z,27.25
2024-01-06T13:16:43.049Z,33.70
2024-01-06T13:19:46.619Z,31.97
2024-01-06T13:22:49.645Z,53.63
2024-01-06T13:25:52.720Z,53.05
2024-01-06T13:28:55.916Z,48.83
2024-01-06T13:32:00.488Z,45.67
2024-01-06T13:35:06.576Z,44.63
2024-01-06T13:38:10.277Z,45.47
2024-01-06T13:41:13.506Z,43.20
2024-01-06T13:44:16.833Z,42.90
2024-01-06T13:47:20.149Z,43.53
2024-01-06T13:50:23.161Z,36.07
2024-01-06T13:53:26.382Z,38.40
2024-01-06T13:56:29.366Z,39.05
2024-01-06T13:59:32.328Z,46.45
2024-01-06T14:02:35.346Z,51.15
2024-01-06T14:05:38.937Z,39.40
2024-01-06T14:08:42.896Z,34.88
2024-01-06T14:11:46.201Z,35.10
2024-01-06T14:14:49.894Z,39.78
2024-01-06T14:17:53.018Z,40.92
2024-01-06T14:20:57.411Z,35.50
2024-01-06T14:24:00.850Z,32.88
2024-01-06T14:27:04.995Z,37.53
2024-01-06T14:30:10.698Z,38.15
2024-01-06T14:33:14.278Z,40.28
2024-01-06T14:36:17.453Z,41.17
2024-01-06T14:39:23.710Z,39.72
2024-01-06T14:42:26.761Z,38.28
2024-01-06T14:45:29.842Z,36.97
2024-01-06T14:48:32.954Z,40.90
2024-01-06T14:51:36.088Z,36.53
2024-01-06T14:54:40.090Z,37.92
2024-01-06T14:57:44.048Z,34.50
2024-01-06T15:00:47.252Z,40.72
2024-01-06T15:03:50.448Z,47.03
2024-01-06T15:06:53.653Z,56.80
2024-01-06T15:09:57.779Z,56.35
2024-01-06T15:13:02.052Z,55.55
2024-01-06T15:16:06.172Z,50.72
2024-01-06T15:19:09.469Z,47.10
2024-01-06T15:22:12.717Z,39.93
2024-01-06T15:25:15.962Z,41.55
2024-01-06T15:28:19.192Z,44.63
2024-01-06T15:31:22.218Z,46.80
2024-01-06T15:34:25.763Z,44.95
2024-01-06T15:37:28.887Z,43.83
2024-01-06T15:40:31.986Z,38.88
2024-01-06T15:43:35.111Z,36.70
2024-01-06T15:46:38.691Z,35.70
2024-01-06T15:49:41.795Z,33.83
2024-01-06T15:52:47.030Z,38.10
2024-01-06T15:55:50.026Z,34.58
2024-01-06T15:58:55.612Z,34.80
2024-01-06T16:01:59.447Z,31.05
2024-01-06T16:05:02.794Z,39.78
2024-01-06T16:08:06.203Z,34.17
2024-01-06T16:11:09.692Z,30.00
2024-01-06T16:14:12.705Z,31.42
2024-01-06T16:17:15.951Z,32.25
2024-01-06T16:20:19.029Z,30.45
2024-01-06T16:23:24.959Z,32.13
2024-01-06T16:26:28.196Z,30.23
2024-01-06T16:29:31.384Z,31.02
2024-01-06T16:32:34.452Z,35.20
2024-01-06T16:35:38.600Z,30.65
2024-01-06T16:38:42.416Z,35.70
2024-01-06T16:41:45.407Z,34.20
2024-01-06T16:44:48.407Z,34.25
2024-01-06T16:47:51.495Z,36.58
2024-01-06T16:50:54.537Z,33.00
2024-01-06T16:53:57.549Z,33.50
2024-01-06T16:57:01.391Z,33.50
2024-01-06T17:00:06.140Z,34.13
2024-01-06T17:03:09.451Z,34.38
2024-01-06T17:06:13.168Z,33.58
2024-01-06T17:09:16.726Z,32.47
2024-01-06T17:12:22.761Z,32.47
2024-01-06T17:15:28.184Z,34.53
2024-01-06T17:18:31.389Z,31.88
2024-01-06T17:21:34.524Z,37.90
2024-01-06T17:24:37.667Z,36.93
2024-01-06T17:27:41.560Z,36.60
2024-01-06T17:30:44.825Z,38.50
2024-01-06T17:33:48.091Z,38.17
2024-01-06T17:36:51.276Z,41.70
2024-01-06T17:39:54.370Z,41.33
2024-01-06T17:42:57.459Z,37.00
2024-01-06T17:46:00.541Z,37.85
2024-01-06T17:49:04.662Z,34.63
2024-01-06T17:52:08.034Z,37.45
2024-01-06T17:55:11.311Z,38.83
2024-01-06T17:58:14.382Z,44.22
2024-01-06T18:01:17.524Z,47.67
2024-01-06T18:04:20.849Z,37.00
2024-01-06T18:07:25.463Z,38.75
2024-01-06T18:10:28.714Z,32.67
2024-01-06T18:13:31.790Z,29.10
2024-01-06T18:16:34.766Z,27.77
2024-01-06T18:19:37.790Z,27.00
2024-01-06T18:22:40.911Z,29.52
2024-01-06T18:25:44.450Z,31.47
2024-01-06T18:28:47.475Z,33.58
2024-01-06T18:31:51.073Z,31.73
2024-01-06T18:34:54.259Z,32.47
2024-01-06T18:37:57.382Z,35.13
2024-01-06T18:41:01.284Z,36.63
2024-01-06T18:44:10.753Z,34.53
2024-01-06T18:47:16.292Z,30.92
2024-01-06T18:50:20.848Z,31.17
2024-01-06T18:53:23.898Z,26.95
2024-01-06T18:56:28.678Z,29.43
2024-01-06T18:59:32.802Z,30.17
2024-01-06T19:02:36.421Z,30.95
2024-01-06T19:05:39.496Z,34.53
2024-01-06T19:08:42.718Z,37.33
2024-01-06T19:11:46.063Z,30.17
2024-01-06T19:14:49.484Z,34.08
2024-01-06T19:17:52.920Z,34.03
2024-01-06T19:20:56.069Z,31.83
2024-01-06T19:23:59.146Z,31.95
2024-01-06T19:27:03.327Z,30.37
2024-01-06T19:30:07.191Z,27.42
2024-01-06T19:33:10.286Z,28.58
2024-01-06T19:36:13.784Z,28.20
2024-01-06T19:39:16.899Z,26.55
2024-01-06T19:42:19.970Z,25.77
2024-01-06T19:45:23.023Z,23.45
2024-01-06T19:48:26.175Z,23.15
2024-01-06T19:51:29.299Z,23.48
2024-01-06T19:54:33.693Z,23.95
2024-01-06T19:57:37.037Z,21.80
2024-01-06T20:00:40.176Z,21.65
2024-01-06T20:03:43.319Z,22.25
2024-01-06T20:06:47.166Z,23.80
2024-01-06T20:09:50.317Z,20.15
2024-01-06T20:12:53.438Z,22.50
2024-01-06T20:15:57.067Z,24.42
2024-01-06T20:19:00.209Z,27.02
2024-01-06T20:22:04.196Z,27.73
2024-01-06T20:25:07.801Z,25.25
2024-01-06T20:28:11.860Z,26.07
2024-01-06T20:31:15.912Z,26.27
2024-01-06T20:34:19.171Z,23.92
2024-01-06T20:37:22.309Z,25.80
2024-01-06T20:40:25.353Z,22.95
2024-01-06T20:43:28.334Z,21.60
2024-01-06T20:46:31.375Z,23.25
2024-01-06T20:49:34.569Z,22.52
2024-01-06T20:52:38.108Z,24.27
2024-01-06T20:55:42.209Z,23.00
2024-01-06T20:58:45.201Z,21.67
2024-01-06T21:01:48.550Z,31.13
2024-01-06T21:04:51.940Z,51.67
2024-01-06T21:07:55.190Z,128.07
2024-01-06T21:10:58.864Z,53.10
2024-01-06T21:14:01.961Z,23.67
2024-01-06T21:17:05.209Z,22.02
2024-01-06T21:20:08.837Z,21.80
2024-01-06T21:23:11.838Z,19.30
2024-01-06T21:26:15.304Z,20.73
2024-01-06T21:29:18.829Z,19.57
2024-01-06T21:32:21.900Z,20.73
2024-01-06T21:35:24.937Z,21.48
2024-01-06T21:38:27.951Z,20.95
2024-01-06T21:41:30.995Z,18.95
2024-01-06T21:44:33.980Z,19.30
2024-01-06T21:47:38.578Z,20.10
2024-01-06T21:50:41.990Z,20.35
2024-01-06T21:53:45.023Z,19.45
2024-01-06T21:56:48.085Z,19.13
2024-01-06T21:59:51.154Z,16.93
2024-01-06T22:02:54.271Z,18.52
2024-01-06T22:05:57.449Z,18.85
2024-01-06T22:09:10.430Z,19.90
2024-01-06T22:12:15.756Z,18.88
2024-01-06T22:15:18.824Z,18.40
2024-01-06T22:18:22.910Z,19.50
2024-01-06T22:21:26.218Z,17.90
2024-01-06T22:24:30.195Z,17.92
2024-01-06T22:27:33.279Z,19.17
2024-01-06T22:30:36.416Z,17.57
2024-01-06T22:33:39.527Z,18.70
2024-01-06T22:36:42.710Z,17.60
2024-01-06T22:39:45.970Z,20.20
2024-01-06T22:42:49.097Z,22.48
2024-01-06T22:45:52.206Z,20.93
2024-01-06T22:48:55.381Z,21.08
2024-01-06T22:51:58.584Z,20.45
2024-01-06T22:55:01.677Z,22.02
2024-01-06T22:58:04.847Z,20.92
2024-01-06T23:01:08.023Z,19.07
2024-01-06T23:04:11.227Z,21.50
2024-01-06T23:07:14.728Z,21.63
2024-01-06T23:10:17.935Z,20.90
2024-01-06T23:13:20.908Z,24.02
2024-01-06T23:16:24.123Z,19.03
2024-01-06T23:19:27.916Z,21.70
2024-01-06T23:22:30.944Z,20.05
2024-01-06T23:25:33.953Z,19.17
2024-01-06T23:28:37.289Z,18.33
2024-01-06T23:31:40.305Z,22.67
2024-01-06T23:34:43.690Z,17.48
2024-01-06T23:37:51.754Z,18.80
2024-01-06T23:40:54.841Z,17.67
2024-01-06T23:43:57.803Z,19.20
2024-01-06T23:47:00.829Z,20.30
2024-01-06T23:50:04.998Z,22.45
2024-01-06T23:53:08.031Z,19.70
2024-01-06T23:56:11.074Z,18.30
2024-01-06T23:59:14.157Z,20.73
